createdAt,value
2022-09-26T00:01:18.213Z,27.00
2022-09-26T00:03:47.557Z,24.00
2022-09-26T00:06:18.920Z,24.00
2022-09-26T00:08:47.300Z,26.00
2022-09-26T00:11:16.816Z,26.00
2022-09-26T00:13:44.657Z,24.67
2022-09-26T00:16:13.234Z,24.33
2022-09-26T00:18:41.569Z,26.00
2022-09-26T00:21:11.441Z,25.33
2022-09-26T00:23:39.291Z,28.00
2022-09-26T00:26:07.165Z,26.00
2022-09-26T00:28:35.024Z,23.00
2022-09-26T00:31:07.342Z,27.33
2022-09-26T00:33:35.887Z,25.00
2022-09-26T00:36:04.982Z,29.00
2022-09-26T00:38:33.046Z,25.00
2022-09-26T00:41:01.363Z,26.00
2022-09-26T00:43:30.886Z,24.00
2022-09-26T00:46:17.642Z,25.00
2022-09-26T00:48:49.173Z,27.00
2022-09-26T00:51:17.475Z,32.00
2022-09-26T00:53:47.398Z,27.00
2022-09-26T00:56:19.664Z,27.00
2022-09-26T00:58:51.427Z,26.00
2022-09-26T01:01:20.017Z,23.00
2022-09-26T01:03:49.407Z,28.00
2022-09-26T01:06:17.988Z,24.00
2022-09-26T01:08:51.188Z,26.33
2022-09-26T01:11:19.971Z,24.50
2022-09-26T01:13:49.267Z,24.67
2022-09-26T01:16:17.897Z,27.67
2022-09-26T01:18:46.544Z,26.00
2022-09-26T01:21:14.313Z,26.00
2022-09-26T01:23:42.170Z,25.00
2022-09-26T01:26:28.476Z,25.67
2022-09-26T01:28:59.293Z,28.00
2022-09-26T01:31:35.072Z,26.00
2022-09-26T01:34:19.611Z,27.00
2022-09-26T01:37:01.509Z,26.00
2022-09-26T01:39:35.739Z,23.50
2022-09-26T01:42:03.495Z,24.00
2022-09-26T01:44:39.754Z,25.00
2022-09-26T01:47:26.153Z,25.33
2022-09-26T01:50:00.220Z,26.67
2022-09-26T01:52:43.389Z,22.50
2022-09-26T01:55:37.880Z,25.67
2022-09-26T01:58:12.553Z,28.00
2022-09-26T02:00:42.982Z,28.00
2022-09-26T02:03:12.951Z,30.00
2022-09-26T02:05:49.116Z,27.33
2022-09-26T02:08:24.657Z,28.00
2022-09-26T02:11:02.257Z,25.33
2022-09-26T02:13:32.779Z,24.50
2022-09-26T02:16:08.869Z,28.00
2022-09-26T02:18:50.235Z,24.67
2022-09-26T02:21:20.504Z,27.00
2022-09-26T02:23:49.241Z,30.00
2022-09-26T02:26:17.311Z,26.00
2022-09-26T02:28:45.846Z,28.00
2022-09-26T02:31:21.492Z,32.00
2022-09-26T02:33:50.230Z,29.00
2022-09-26T02:36:21.924Z,28.33
2022-09-26T02:38:49.973Z,26.33
2022-09-26T02:42:07.387Z,26.67
2022-09-26T02:44:43.858Z,30.50
2022-09-26T02:47:24.216Z,28.00
2022-09-26T02:50:10.530Z,26.00
2022-09-26T02:52:47.598Z,28.00
2022-09-26T02:55:27.445Z,28.50
2022-09-26T02:57:55.111Z,28.00
2022-09-26T03:00:32.142Z,32.33
2022-09-26T03:03:03.539Z,29.50
2022-09-26T03:05:33.357Z,30.00
2022-09-26T03:08:14.532Z,25.33
2022-09-26T03:10:42.808Z,27.00
2022-09-26T03:13:12.000Z,28.00
2022-09-26T03:15:41.655Z,25.00
2022-09-26T03:18:12.936Z,29.50
2022-09-26T03:20:41.682Z,28.67
2022-09-26T03:23:09.906Z,25.33
2022-09-26T03:25:38.385Z,25.00
2022-09-26T03:28:07.910Z,23.67
2022-09-26T03:30:35.665Z,24.00
2022-09-26T03:33:26.574Z,27.00
2022-09-26T03:35:55.156Z,29.00
2022-09-26T03:38:23.250Z,32.33
2022-09-26T03:41:00.008Z,29.00
2022-09-26T03:43:54.912Z,26.00
2022-09-26T03:46:25.339Z,29.00
2022-09-26T03:48:53.206Z,27.00
2022-09-26T03:51:21.300Z,26.00
2022-09-26T03:53:49.348Z,25.00
2022-09-26T03:56:19.358Z,25.50
2022-09-26T03:58:49.203Z,31.33
2022-09-26T04:01:18.522Z,27.67
2022-09-26T04:03:50.591Z,26.00
2022-09-26T04:06:21.133Z,29.00
2022-09-26T04:08:50.947Z,26.00
2022-09-26T04:11:20.492Z,22.00
2022-09-26T04:13:52.450Z,26.33
2022-09-26T04:16:24.128Z,30.00
2022-09-26T04:18:57.439Z,31.00
2022-09-26T04:21:27.444Z,26.33
2022-09-26T04:23:56.420Z,28.33
2022-09-26T04:26:24.739Z,30.00
2022-09-26T04:28:55.762Z,25.67
2022-09-26T04:31:27.949Z,30.00
2022-09-26T04:34:03.048Z,27.00
2022-09-26T04:36:31.309Z,32.67
2022-09-26T04:39:00.784Z,26.33
2022-09-26T04:41:30.568Z,30.00
2022-09-26T04:43:59.422Z,29.00
2022-09-26T04:46:30.801Z,27.00
2022-09-26T04:49:00.746Z,33.67
2022-09-26T04:51:29.679Z,26.33
2022-09-26T04:53:57.956Z,32.00
2022-09-26T04:56:28.386Z,29.00
2022-09-26T04:58:57.481Z,26.67
2022-09-26T05:01:27.366Z,30.00
2022-09-26T05:04:04.777Z,28.67
2022-09-26T05:06:33.871Z,28.00
2022-09-26T05:09:04.350Z,31.00
2022-09-26T05:11:40.774Z,29.00
2022-09-26T05:14:10.984Z,28.00
2022-09-26T05:16:40.176Z,29.00
2022-09-26T05:19:10.587Z,26.00
2022-09-26T05:21:43.229Z,30.00
2022-09-26T05:24:30.010Z,31.00
2022-09-26T05:26:58.032Z,27.67
2022-09-26T05:29:26.159Z,21.00
2022-09-26T05:31:58.562Z,25.67
2022-09-26T05:34:28.240Z,25.50
2022-09-26T05:36:56.716Z,25.00
2022-09-26T05:39:43.114Z,25.00
2022-09-26T05:42:12.214Z,20.00
2022-09-26T05:44:40.792Z,22.00
2022-09-26T05:47:09.156Z,22.00
2022-09-26T05:49:38.432Z,24.00
2022-09-26T05:52:06.541Z,23.00
2022-09-26T05:54:34.513Z,24.00
2022-09-26T05:57:05.148Z,21.33
2022-09-26T05:59:47.550Z,28.00
2022-09-26T06:02:27.295Z,24.67
2022-09-26T06:05:17.082Z,19.00
2022-09-26T06:07:58.765Z,25.00
2022-09-26T06:10:40.365Z,31.33
2022-09-26T06:13:08.330Z,22.00
2022-09-26T06:15:55.098Z,26.00
2022-09-26T06:18:23.614Z,23.00
2022-09-26T06:20:51.483Z,23.67
2022-09-26T06:23:19.675Z,22.67
2022-09-26T06:25:48.043Z,20.33
2022-09-26T06:28:16.016Z,21.00
2022-09-26T06:30:44.545Z,23.00
2022-09-26T06:33:16.047Z,21.00
2022-09-26T06:36:02.242Z,25.00
2022-09-26T06:38:36.176Z,21.67
2022-09-26T06:41:04.682Z,27.33
2022-09-26T06:43:33.132Z,27.00
2022-09-26T06:46:31.525Z,23.67
2022-09-26T06:49:12.917Z,26.00
2022-09-26T06:51:51.914Z,23.33
2022-09-26T06:54:21.006Z,25.00
2022-09-26T06:56:48.770Z,22.00
2022-09-26T06:59:17.420Z,22.00
2022-09-26T07:01:53.382Z,21.67
2022-09-26T07:04:40.226Z,27.00
2022-09-26T07:07:17.819Z,18.00
2022-09-26T07:09:45.552Z,20.00
2022-09-26T07:12:17.236Z,22.00
2022-09-26T07:14:47.070Z,19.00
2022-09-26T07:17:37.348Z,20.00
2022-09-26T07:20:11.919Z,21.50
2022-09-26T07:23:06.436Z,20.00
2022-09-26T07:25:34.817Z,20.00
2022-09-26T07:28:03.218Z,21.00
2022-09-26T07:30:50.661Z,20.00
2022-09-26T07:33:42.780Z,20.00
2022-09-26T07:36:12.377Z,16.50
2022-09-26T07:38:40.866Z,19.00
2022-09-26T07:41:11.090Z,19.00
2022-09-26T07:44:30.265Z,20.00
2022-09-26T07:46:47.436Z,23.00
2022-09-26T07:49:34.016Z,20.00
2022-09-26T07:52:37.636Z,19.00
2022-09-26T07:55:22.452Z,22.50
2022-09-26T07:57:52.972Z,22.00
2022-09-26T08:00:36.208Z,23.00
2022-09-26T08:03:14.217Z,19.00
2022-09-26T08:05:43.817Z,20.00
2022-09-26T08:08:11.535Z,19.00
2022-09-26T08:11:18.994Z,19.00
2022-09-26T08:14:09.162Z,18.00
2022-09-26T08:16:45.942Z,20.00
2022-09-26T08:19:17.714Z,21.00
2022-09-26T08:21:46.208Z,19.00
2022-09-26T08:24:14.447Z,20.00
2022-09-26T08:26:56.132Z,19.00
2022-09-26T08:29:31.089Z,18.00
2022-09-26T08:32:01.179Z,17.00
2022-09-26T08:34:32.238Z,19.00
2022-09-26T08:37:21.307Z,22.00
2022-09-26T08:40:07.855Z,19.00
2022-09-26T08:43:30.333Z,19.00
2022-09-26T08:46:39.966Z,16.00
2022-09-26T08:49:22.491Z,20.00
2022-09-26T08:51:55.392Z,15.50
2022-09-26T08:54:34.125Z,16.00
2022-09-26T08:57:06.076Z,15.00
2022-09-26T08:59:46.026Z,16.00
2022-09-26T09:02:23.026Z,16.00
2022-09-26T09:05:04.107Z,15.00
2022-09-26T09:07:34.714Z,17.50
2022-09-26T09:10:07.070Z,18.00
2022-09-26T09:12:48.881Z,14.50
2022-09-26T09:16:13.862Z,17.50
2022-09-26T09:19:26.715Z,15.00
2022-09-26T09:22:25.030Z,14.00
2022-09-26T09:25:21.425Z,16.00
2022-09-26T09:28:09.362Z,15.00
2022-09-26T09:30:45.377Z,15.00
2022-09-26T09:33:41.635Z,14.00
2022-09-26T09:36:54.271Z,13.00
2022-09-26T09:39:37.328Z,14.50
2022-09-26T09:42:36.440Z,15.00
2022-09-26T09:45:16.143Z,11.00
2022-09-26T09:47:45.955Z,14.33
2022-09-26T09:50:22.978Z,14.00
2022-09-26T09:53:16.308Z,11.00
2022-09-26T09:56:08.374Z,12.50
2022-09-26T09:58:36.414Z,12.00
2022-09-26T10:01:25.653Z,13.00
2022-09-26T10:04:04.910Z,18.00
2022-09-26T10:06:44.640Z,12.50
2022-09-26T10:09:39.502Z,17.00
2022-09-26T10:12:28.969Z,12.00
2022-09-26T10:15:27.532Z,12.00
2022-09-26T10:18:26.055Z,12.00
2022-09-26T10:21:11.058Z,14.00
2022-09-26T10:23:40.475Z,12.50
2022-09-26T10:26:14.065Z,16.00
2022-09-26T10:28:45.246Z,15.00
2022-09-26T10:31:21.934Z,13.00
2022-09-26T10:34:21.801Z,14.00
2022-09-26T10:36:49.667Z,14.00
2022-09-26T10:39:37.405Z,14.00
2022-09-26T10:42:13.976Z,13.00
2022-09-26T10:44:43.388Z,13.33
2022-09-26T10:47:38.073Z,14.33
2022-09-26T10:50:10.700Z,13.00
2022-09-26T10:53:01.572Z,11.50
2022-09-26T10:55:32.910Z,16.67
2022-09-26T10:58:10.080Z,16.00
2022-09-26T11:00:43.419Z,22.50
2022-09-26T11:03:20.304Z,16.00
2022-09-26T11:06:26.231Z,23.33
2022-09-26T11:08:58.604Z,18.67
2022-09-26T11:11:48.168Z,18.00
2022-09-26T11:14:27.883Z,18.00
2022-09-26T11:17:02.852Z,20.67
2022-09-26T11:19:44.751Z,19.00
2022-09-26T11:22:32.997Z,18.33
2022-09-26T11:25:11.820Z,21.33
2022-09-26T11:27:59.497Z,24.50
2022-09-26T11:30:41.727Z,23.00
2022-09-26T11:33:13.550Z,28.67
2022-09-26T11:35:53.771Z,27.00
2022-09-26T11:38:38.433Z,28.67
2022-09-26T11:41:09.594Z,30.00
2022-09-26T11:43:40.533Z,29.00
2022-09-26T11:46:31.617Z,30.00
2022-09-26T11:49:19.860Z,26.33
2022-09-26T11:52:00.954Z,21.33
2022-09-26T11:54:58.530Z,19.00
2022-09-26T11:57:29.724Z,15.33
2022-09-26T12:00:06.349Z,18.00
2022-09-26T12:02:54.546Z,18.00
2022-09-26T12:05:27.234Z,19.33
2022-09-26T12:08:04.521Z,20.00
2022-09-26T12:10:35.555Z,17.67
2022-09-26T12:13:19.279Z,19.00
2022-09-26T12:15:55.235Z,17.00
2022-09-26T12:18:35.308Z,21.00
2022-09-26T12:21:18.242Z,16.00
2022-09-26T12:23:51.329Z,19.00
2022-09-26T12:26:20.000Z,19.67
2022-09-26T12:28:53.744Z,23.00
2022-09-26T12:31:27.821Z,15.50
2022-09-26T12:34:02.502Z,17.00
2022-09-26T12:36:31.384Z,15.00
2022-09-26T12:38:59.118Z,18.00
2022-09-26T12:41:29.941Z,18.00
2022-09-26T12:44:03.869Z,18.67
2022-09-26T12:46:42.735Z,17.33
2022-09-26T12:49:33.689Z,19.00
2022-09-26T12:52:27.147Z,17.00
2022-09-26T12:55:13.568Z,19.00
2022-09-26T12:57:41.554Z,17.00
2022-09-26T13:00:16.818Z,20.00
2022-09-26T13:02:47.545Z,26.33
2022-09-26T13:05:16.050Z,25.67
2022-09-26T13:07:47.042Z,23.67
2022-09-26T13:10:20.943Z,21.33
2022-09-26T13:13:00.284Z,20.33
2022-09-26T13:15:35.449Z,18.33
2022-09-26T13:18:08.187Z,22.00
2022-09-26T13:20:58.923Z,17.00
2022-09-26T13:23:31.675Z,20.00
2022-09-26T13:26:06.046Z,18.33
2022-09-26T13:28:38.483Z,18.67
2022-09-26T13:31:16.436Z,19.33
2022-09-26T13:33:56.935Z,19.00
2022-09-26T13:36:25.515Z,18.00
2022-09-26T13:39:03.534Z,19.00
2022-09-26T13:41:38.590Z,20.67
2022-09-26T13:44:09.594Z,20.00
2022-09-26T13:46:50.462Z,20.00
2022-09-26T13:49:43.127Z,18.00
2022-09-26T13:52:13.757Z,17.00
2022-09-26T13:54:57.383Z,17.00
2022-09-26T13:57:37.546Z,19.00
2022-09-26T14:00:31.723Z,21.00
2022-09-26T14:03:19.465Z,18.00
2022-09-26T14:05:52.190Z,19.00
2022-09-26T14:08:44.929Z,21.00
2022-09-26T14:11:16.344Z,21.00
2022-09-26T14:13:44.864Z,19.33
2022-09-26T14:16:27.635Z,19.00
2022-09-26T14:18:58.549Z,22.00
2022-09-26T14:21:35.653Z,21.00
2022-09-26T14:24:21.452Z,16.00
2022-09-26T14:27:04.593Z,16.00
2022-09-26T14:29:33.049Z,18.00
2022-09-26T14:32:12.967Z,19.00
2022-09-26T14:34:48.966Z,18.00
2022-09-26T14:37:31.882Z,18.00
2022-09-26T14:39:59.863Z,17.00
2022-09-26T14:42:28.430Z,20.00
2022-09-26T14:45:01.439Z,17.50
2022-09-26T14:47:37.940Z,19.50
2022-09-26T14:50:14.163Z,18.00
2022-09-26T14:52:50.112Z,18.00
2022-09-26T14:55:19.508Z,22.00
2022-09-26T14:57:48.698Z,14.00
2022-09-26T15:00:35.320Z,19.00
2022-09-26T15:03:08.133Z,20.00
2022-09-26T15:05:36.849Z,17.00
2022-09-26T15:08:04.864Z,19.00
2022-09-26T15:10:40.323Z,19.00
2022-09-26T15:13:17.391Z,17.00
2022-09-26T15:15:56.174Z,15.00
2022-09-26T15:18:29.958Z,20.33
2022-09-26T15:21:04.208Z,24.00
2022-09-26T15:23:34.146Z,20.00
2022-09-26T15:26:05.494Z,21.00
2022-09-26T15:28:35.002Z,17.00
2022-09-26T15:31:23.511Z,18.00
2022-09-26T15:33:55.002Z,16.00
2022-09-26T15:36:23.374Z,20.67
2022-09-26T15:38:51.516Z,25.00
2022-09-26T15:41:39.999Z,23.00
2022-09-26T15:44:08.931Z,22.00
2022-09-26T15:46:36.989Z,26.00
2022-09-26T15:49:13.333Z,25.00
2022-09-26T15:51:43.250Z,22.00
2022-09-26T15:54:16.068Z,24.00
2022-09-26T15:56:48.346Z,25.00
2022-09-26T15:59:32.370Z,22.00
2022-09-26T16:02:00.788Z,19.00
2022-09-26T16:04:29.923Z,17.00
2022-09-26T16:07:00.089Z,21.00
2022-09-26T16:09:35.515Z,21.00
2022-09-26T16:12:03.657Z,27.00
2022-09-26T16:14:40.642Z,22.67
2022-09-26T16:17:17.206Z,19.67
2022-09-26T16:19:49.475Z,21.00
2022-09-26T16:22:41.213Z,23.00
2022-09-26T16:25:22.997Z,19.33
2022-09-26T16:27:58.470Z,19.00
2022-09-26T16:30:27.350Z,19.67
2022-09-26T16:33:01.370Z,21.00
2022-09-26T16:35:30.337Z,25.00
2022-09-26T16:38:05.610Z,27.33
2022-09-26T16:40:35.085Z,27.00
2022-09-26T16:43:03.057Z,27.67
2022-09-26T16:45:31.025Z,30.50
2022-09-26T16:47:58.844Z,29.00
2022-09-26T16:50:28.163Z,28.33
2022-09-26T16:52:56.374Z,29.00
2022-09-26T16:55:25.413Z,24.00
2022-09-26T16:57:53.505Z,24.50
2022-09-26T17:00:41.890Z,27.00
2022-09-26T17:03:21.458Z,23.00
2022-09-26T17:05:50.534Z,21.50
2022-09-26T17:08:18.809Z,22.50
2022-09-26T17:10:46.781Z,24.00
2022-09-26T17:13:17.087Z,22.50
2022-09-26T17:15:48.705Z,25.00
2022-09-26T17:18:19.989Z,19.50
2022-09-26T17:20:49.121Z,22.00
2022-09-26T17:23:38.718Z,21.00
2022-09-26T17:26:08.792Z,21.00
2022-09-26T17:28:39.215Z,22.00
2022-09-26T17:31:08.592Z,21.00
2022-09-26T17:33:40.772Z,22.00
2022-09-26T17:36:17.174Z,22.00
2022-09-26T17:38:45.522Z,27.67
2022-09-26T17:41:13.495Z,24.00
2022-09-26T17:43:41.865Z,24.00
2022-09-26T17:46:15.223Z,24.00
2022-09-26T17:48:44.979Z,22.67
2022-09-26T17:51:14.508Z,25.00
2022-09-26T17:53:50.857Z,24.00
2022-09-26T17:56:19.818Z,24.00
2022-09-26T17:58:48.624Z,23.00
2022-09-26T18:01:25.574Z,22.00
2022-09-26T18:03:59.942Z,19.50
2022-09-26T18:06:29.170Z,22.00
2022-09-26T18:08:59.877Z,21.67
2022-09-26T18:11:28.035Z,21.00
2022-09-26T18:13:55.975Z,25.00
2022-09-26T18:16:24.891Z,22.33
2022-09-26T18:18:53.715Z,20.00
2022-09-26T18:21:21.859Z,23.00
2022-09-26T18:23:55.780Z,22.00
2022-09-26T18:26:34.127Z,21.00
2022-09-26T18:29:06.447Z,20.00
2022-09-26T18:31:36.415Z,19.00
2022-09-26T18:34:04.645Z,20.00
2022-09-26T18:36:35.682Z,20.50
2022-09-26T18:39:04.053Z,25.00
2022-09-26T18:41:32.436Z,23.00
2022-09-26T18:44:01.027Z,21.00
2022-09-26T18:46:29.346Z,21.50
2022-09-26T18:48:58.456Z,24.00
2022-09-26T18:51:27.467Z,21.00
2022-09-26T18:53:55.375Z,21.00
2022-09-26T18:56:41.774Z,23.33
2022-09-26T18:59:10.328Z,23.00
2022-09-26T19:01:41.668Z,20.00
2022-09-26T19:04:17.040Z,20.67
2022-09-26T19:06:47.359Z,21.00
2022-09-26T19:09:20.032Z,20.00
2022-09-26T19:11:47.905Z,23.50
2022-09-26T19:14:26.211Z,21.00
2022-09-26T19:16:54.901Z,22.00
2022-09-26T19:19:23.405Z,23.00
2022-09-26T19:21:51.342Z,20.00
2022-09-26T19:24:25.257Z,23.00
2022-09-26T19:26:58.415Z,22.00
2022-09-26T19:29:46.598Z,23.00
2022-09-26T19:32:21.937Z,25.00
2022-09-26T19:34:55.312Z,23.00
2022-09-26T19:37:23.286Z,20.00
2022-09-26T19:39:51.486Z,18.00
2022-09-26T19:42:19.486Z,21.33
2022-09-26T19:44:49.224Z,21.67
2022-09-26T19:47:21.830Z,18.00
2022-09-26T19:49:51.640Z,25.00
2022-09-26T19:52:20.906Z,22.00
2022-09-26T19:54:49.016Z,24.00
2022-09-26T19:57:18.619Z,19.33
2022-09-26T19:59:46.901Z,17.00
2022-09-26T20:02:15.776Z,21.00
2022-09-26T20:04:44.426Z,20.67
2022-09-26T20:07:13.783Z,18.33
2022-09-26T20:09:42.236Z,21.00
2022-09-26T20:12:10.949Z,20.00
2022-09-26T20:14:39.019Z,22.50
2022-09-26T20:17:39.347Z,19.00
2022-09-26T20:20:07.899Z,20.00
2022-09-26T20:22:35.866Z,19.67
2022-09-26T20:25:04.918Z,23.00
2022-09-26T20:27:33.555Z,21.00
2022-09-26T20:30:20.289Z,24.33
2022-09-26T20:32:48.180Z,22.00
2022-09-26T20:35:16.118Z,23.00
2022-09-26T20:37:44.892Z,24.00
2022-09-26T20:40:24.382Z,31.33
2022-09-26T20:42:57.125Z,27.00
2022-09-26T20:45:33.847Z,29.67
2022-09-26T20:48:01.979Z,24.33
2022-09-26T20:50:34.144Z,25.00
2022-09-26T20:53:02.430Z,28.00
2022-09-26T20:55:32.667Z,31.00
2022-09-26T20:58:00.824Z,27.00
2022-09-26T21:00:29.092Z,29.50
2022-09-26T21:02:57.453Z,30.33
2022-09-26T21:05:27.591Z,29.33
2022-09-26T21:07:57.024Z,31.00
2022-09-26T21:10:25.078Z,34.00
2022-09-26T21:12:53.830Z,28.00
2022-09-26T21:15:22.640Z,35.00
2022-09-26T21:17:51.128Z,31.00
2022-09-26T21:20:26.879Z,29.00
2022-09-26T21:23:18.616Z,22.00
2022-09-26T21:25:46.875Z,23.00
2022-09-26T21:28:22.906Z,20.33
2022-09-26T21:30:50.944Z,26.00
2022-09-26T21:33:21.890Z,26.33
2022-09-26T21:35:50.541Z,24.00
2022-09-26T21:38:20.239Z,27.50
2022-09-26T21:40:51.650Z,18.50
2022-09-26T21:43:22.022Z,26.00
2022-09-26T21:45:49.946Z,25.00
2022-09-26T21:48:18.062Z,23.67
2022-09-26T21:50:48.378Z,25.00
2022-09-26T21:53:23.323Z,28.50
2022-09-26T21:55:53.854Z,32.00
2022-09-26T21:58:25.294Z,27.00
2022-09-26T22:00:53.561Z,31.67
2022-09-26T22:03:21.954Z,31.67
2022-09-26T22:05:49.885Z,32.00
2022-09-26T22:08:17.897Z,29.00
2022-09-26T22:10:45.681Z,26.50
2022-09-26T22:13:13.721Z,29.00
2022-09-26T22:15:41.803Z,26.00
2022-09-26T22:18:10.364Z,29.67
2022-09-26T22:20:38.246Z,30.33
2022-09-26T22:23:05.949Z,26.00
2022-09-26T22:25:34.909Z,30.67
2022-09-26T22:28:02.761Z,26.67
2022-09-26T22:30:31.308Z,29.00
2022-09-26T22:32:59.226Z,27.67
2022-09-26T22:35:27.195Z,30.00
2022-09-26T22:37:54.946Z,27.50
2022-09-26T22:40:22.960Z,29.67
2022-09-26T22:42:51.307Z,30.50
2022-09-26T22:45:19.165Z,27.00
2022-09-26T22:47:47.869Z,28.00
2022-09-26T22:50:16.098Z,30.33
2022-09-26T22:52:44.102Z,31.00
2022-09-26T22:55:11.976Z,32.00
2022-09-26T22:57:39.943Z,31.67
2022-09-26T23:00:08.383Z,32.67
2022-09-26T23:02:36.229Z,30.00
2022-09-26T23:05:04.558Z,32.00
2022-09-26T23:07:32.436Z,33.33
2022-09-26T23:10:00.810Z,33.33
2022-09-26T23:12:30.626Z,31.00
2022-09-26T23:14:58.894Z,28.33
2022-09-26T23:17:26.972Z,30.00
2022-09-26T23:19:55.248Z,25.00
2022-09-26T23:22:22.980Z,29.00
2022-09-26T23:24:50.878Z,30.33
2022-09-26T23:27:18.639Z,31.00
2022-09-26T23:29:46.509Z,27.00
2022-09-26T23:32:14.783Z,25.33
2022-09-26T23:34:42.763Z,33.00
2022-09-26T23:37:10.827Z,23.00
2022-09-26T23:39:38.801Z,27.67
2022-09-26T23:42:06.758Z,31.00
2022-09-26T23:44:35.135Z,23.00
2022-09-26T23:47:04.366Z,30.67
2022-09-26T23:49:32.069Z,25.00
2022-09-26T23:52:00.181Z,24.00
2022-09-26T23:54:28.035Z,28.00
2022-09-26T23:56:56.013Z,33.00
2022-09-26T23:59:23.977Z,30.67
